Time;durP1;ratioP1;P1;durP2;ratioP2;P2;SDS_P1;SDS_P2;PMS_P1;PMS_P2;Temp;Humidity;BMP_temperature;BMP_pressure;BME280_temperature;BME280_humidity;BME280_pressure;Samples;Min_cycle;Max_cycle;Signal;HPM_P1;HPM_P2
2022/07/07 00:01:59;;;;;;;8.63;2.07;;;22.30;87.80;;;;;;4951084;28;20187;-67
2022/07/07 00:04:25;;;;;;;6.30;2.37;;;22.20;88.00;;;;;;4950965;28;20198;-67
2022/07/07 00:06:51;;;;;;;7.10;2.13;;;22.30;88.20;;;;;;4964342;28;20222;-66
2022/07/07 00:09:18;;;;;;;4.03;2.13;;;22.20;87.70;;;;;;4952326;28;20647;-67
2022/07/07 00:11:44;;;;;;;6.60;2.50;;;22.30;87.90;;;;;;4947934;28;20214;-68
2022/07/07 00:14:10;;;;;;;9.23;2.37;;;22.30;87.70;;;;;;4955681;28;20191;-67
2022/07/07 00:16:38;;;;;;;5.67;2.23;;;22.30;87.40;;;;;;4948460;28;20250;-68
2022/07/07 00:19:06;;;;;;;3.63;2.17;;;22.20;87.40;;;;;;4951338;28;20196;-68
2022/07/07 00:21:33;;;;;;;2.50;2.07;;;22.20;87.50;;;;;;4959883;28;20198;-66
2022/07/07 00:23:59;;;;;;;6.60;2.30;;;22.20;87.20;;;;;;4952130;28;20207;-67
2022/07/07 00:26:26;;;;;;;8.13;2.10;;;22.20;86.90;;;;;;4950012;28;20281;-67
2022/07/07 00:28:52;;;;;;;9.00;2.27;;;22.10;86.50;;;;;;4959223;28;20257;-68
2022/07/07 00:31:20;;;;;;;3.27;1.90;;;22.10;86.60;;;;;;4955064;28;20198;-68
2022/07/07 00:33:46;;;;;;;8.00;2.60;;;22.10;86.50;;;;;;4954849;28;20199;-68
2022/07/07 00:36:13;;;;;;;2.97;2.03;;;22.00;85.90;;;;;;4935054;29;20210;-67
2022/07/07 00:38:40;;;;;;;4.20;2.20;;;22.00;85.80;;;;;;4949725;29;20203;-67
2022/07/07 00:41:07;;;;;;;4.83;2.20;;;21.90;85.30;;;;;;4960678;28;20194;-67
2022/07/07 00:43:39;;;;;;;4.87;1.90;;;21.90;85.10;;;;;;4956461;28;20190;-67
2022/07/07 00:46:07;;;;;;;5.93;2.30;;;21.80;84.80;;;;;;4954595;28;20186;-67
2022/07/07 00:48:37;;;;;;;3.70;2.17;;;21.80;84.50;;;;;;4954731;28;20195;-66
2022/07/07 00:51:10;;;;;;;7.80;1.83;;;21.80;84.00;;;;;;4950590;28;20191;-67
2022/07/07 00:53:38;;;;;;;3.40;1.67;;;21.80;84.10;;;;;;4954797;28;20198;-67
2022/07/07 00:56:08;;;;;;;6.30;1.83;;;21.80;84.70;;;;;;4958091;28;20187;-68
2022/07/07 00:58:35;;;;;;;4.27;2.00;;;21.80;84.40;;;;;;4944536;29;20532;-67
2022/07/07 01:01:03;;;;;;;9.23;2.10;;;21.80;84.00;;;;;;4961012;28;20202;-67
2022/07/07 01:03:30;;;;;;;4.27;2.17;;;21.80;83.50;;;;;;4971477;28;20643;-67
2022/07/07 01:05:59;;;;;;;2.27;1.70;;;21.80;83.60;;;;;;4949719;28;20208;-67
2022/07/07 01:08:27;;;;;;;3.60;1.90;;;21.70;83.80;;;;;;4968875;28;20206;-67
2022/07/07 01:10:53;;;;;;;6.90;1.93;;;21.80;84.00;;;;;;4958757;28;20191;-67
2022/07/07 01:13:20;;;;;;;5.03;1.93;;;21.80;83.90;;;;;;4957982;28;20273;-67
2022/07/07 01:15:47;;;;;;;6.43;2.10;;;21.80;82.80;;;;;;4953000;28;20191;-67
2022/07/07 01:18:15;;;;;;;6.13;1.87;;;21.90;82.50;;;;;;4955728;28;20229;-67
2022/07/07 01:20:47;;;;;;;4.07;2.10;;;21.90;82.40;;;;;;4976485;28;20762;-67
2022/07/07 01:23:14;;;;;;;2.93;2.00;;;22.00;82.70;;;;;;4938344;28;20623;-67
2022/07/07 01:25:42;;;;;;;2.63;1.60;;;22.00;83.10;;;;;;4956727;28;20291;-67
2022/07/07 01:28:09;;;;;;;4.43;1.83;;;21.90;82.80;;;;;;4950392;28;20198;-67
2022/07/07 01:30:36;;;;;;;3.90;2.10;;;21.90;82.50;;;;;;4960081;28;20297;-68
2022/07/07 01:33:02;;;;;;;3.70;1.90;;;21.90;82.80;;;;;;4938510;28;20569;-67
2022/07/07 01:35:28;;;;;;;3.03;1.90;;;21.90;83.30;;;;;;4941559;29;20246;-68
2022/07/07 01:37:55;;;;;;;4.23;2.20;;;21.90;83.10;;;;;;4957120;28;20232;-67
2022/07/07 01:40:21;;;;;;;2.57;2.00;;;21.80;83.60;;;;;;4961523;28;20571;-67
2022/07/07 01:42:48;;;;;;;2.70;2.13;;;21.80;84.00;;;;;;4958806;28;20202;-68
2022/07/07 01:45:15;;;;;;;2.40;1.90;;;21.80;83.40;;;;;;4956934;28;20313;-66
2022/07/07 01:47:41;;;;;;;3.03;2.07;;;21.80;83.70;;;;;;4973745;28;20202;-66
2022/07/07 01:50:08;;;;;;;5.93;2.10;;;21.70;84.00;;;;;;4946737;28;20975;-67
2022/07/07 01:52:36;;;;;;;3.80;2.07;;;21.70;83.80;;;;;;4961063;28;20265;-67
2022/07/07 01:55:04;;;;;;;5.60;1.80;;;21.60;83.80;;;;;;4972171;28;20735;-68
2022/07/07 01:57:30;;;;;;;3.87;1.97;;;21.60;83.90;;;;;;4951809;28;20215;-66
2022/07/07 01:59:56;;;;;;;3.93;2.07;;;21.50;84.10;;;;;;4949209;28;20298;-67
2022/07/07 02:02:23;;;;;;;5.00;2.20;;;21.50;84.30;;;;;;4953402;28;20190;-66
2022/07/07 02:04:50;;;;;;;4.33;2.10;;;21.40;84.00;;;;;;4948721;28;20195;-67
2022/07/07 02:07:17;;;;;;;3.43;2.10;;;21.40;83.70;;;;;;4956038;28;20207;-67
2022/07/07 02:09:44;;;;;;;4.23;1.90;;;21.40;83.60;;;;;;4951429;28;20269;-67
2022/07/07 02:12:10;;;;;;;4.53;2.00;;;21.40;83.00;;;;;;4946956;28;20229;-66
2022/07/07 02:14:37;;;;;;;3.17;1.80;;;21.40;82.40;;;;;;4950323;28;20206;-67
2022/07/07 02:17:04;;;;;;;4.50;2.20;;;21.40;82.50;;;;;;4973237;28;20264;-67
2022/07/07 02:19:30;;;;;;;4.93;2.03;;;21.40;82.40;;;;;;4954358;28;20198;-68
2022/07/07 02:21:57;;;;;;;5.53;2.03;;;21.40;81.90;;;;;;4974016;28;20808;-67
2022/07/07 02:24:23;;;;;;;2.93;1.60;;;21.40;81.10;;;;;;4966968;28;20190;-67
2022/07/07 02:26:49;;;;;;;1.67;1.47;;;21.40;79.80;;;;;;4953088;28;20237;-67
2022/07/07 02:29:16;;;;;;;5.70;1.73;;;21.50;79.10;;;;;;4963184;28;20282;-67
2022/07/07 02:31:42;;;;;;;4.33;1.60;;;21.50;78.60;;;;;;4956873;28;20225;-68
2022/07/07 02:34:09;;;;;;;4.53;1.70;;;21.50;78.10;;;;;;4961715;28;20270;-67
2022/07/07 02:36:36;;;;;;;2.40;1.67;;;21.50;77.20;;;;;;4950613;28;20218;-66
2022/07/07 02:39:03;;;;;;;3.83;1.77;;;21.50;76.70;;;;;;4965482;28;20265;-67
2022/07/07 02:41:32;;;;;;;2.40;1.80;;;21.50;76.80;;;;;;4943108;28;20214;-66
2022/07/07 02:43:58;;;;;;;2.97;1.70;;;21.50;77.50;;;;;;4958803;28;20294;-67
2022/07/07 02:46:25;;;;;;;4.07;2.00;;;21.50;77.80;;;;;;4960071;28;20221;-68
2022/07/07 02:48:51;;;;;;;10.17;1.80;;;21.50;78.10;;;;;;4958593;28;20190;-67
2022/07/07 02:51:20;;;;;;;6.43;1.80;;;21.60;78.70;;;;;;4964810;28;20215;-67
2022/07/07 02:53:47;;;;;;;2.97;1.93;;;21.60;79.80;;;;;;4946582;28;20195;-66
2022/07/07 02:56:14;;;;;;;3.80;2.20;;;21.60;80.70;;;;;;4953187;28;20211;-66
2022/07/07 02:58:40;;;;;;;6.50;2.30;;;21.70;81.80;;;;;;4958683;28;20228;-67
2022/07/07 03:01:07;;;;;;;5.47;2.60;;;21.80;82.80;;;;;;4963760;28;20567;-67
2022/07/07 03:03:34;;;;;;;5.87;2.90;;;21.80;83.90;;;;;;4947957;29;20218;-68
2022/07/07 03:06:02;;;;;;;9.60;2.37;;;21.90;84.60;;;;;;4948875;28;21825;-68
2022/07/07 03:08:29;;;;;;;5.90;2.70;;;21.90;85.20;;;;;;4953297;28;20194;-68
2022/07/07 03:10:55;;;;;;;6.37;2.67;;;21.90;85.50;;;;;;4946748;29;20652;-67
2022/07/07 03:13:21;;;;;;;9.60;2.90;;;22.00;86.10;;;;;;4971329;28;20226;-67
2022/07/07 03:15:48;;;;;;;5.60;2.60;;;22.00;86.50;;;;;;4970194;28;20222;-67
2022/07/07 03:18:14;;;;;;;6.40;2.87;;;22.00;87.10;;;;;;4955657;28;20229;-67
2022/07/07 03:20:40;;;;;;;5.30;2.53;;;22.00;87.20;;;;;;4963473;28;20671;-67
2022/07/07 03:23:06;;;;;;;5.20;2.57;;;22.00;87.90;;;;;;4957778;28;20276;-68
2022/07/07 03:25:34;;;;;;;4.53;2.80;;;22.00;88.00;;;;;;4948222;28;20592;-67
2022/07/07 03:28:00;;;;;;;8.23;2.73;;;22.00;88.40;;;;;;4948564;28;20774;-66
2022/07/07 03:30:27;;;;;;;4.47;2.53;;;22.00;88.80;;;;;;4962178;28;20198;-68
2022/07/07 03:32:53;;;;;;;8.93;2.60;;;22.00;89.20;;;;;;4964441;28;20261;-67
2022/07/07 03:35:20;;;;;;;4.23;2.67;;;22.00;89.30;;;;;;4946019;28;20253;-67
2022/07/07 03:37:46;;;;;;;4.10;2.50;;;21.90;89.20;;;;;;4953857;28;20214;-67
2022/07/07 03:40:12;;;;;;;5.87;2.60;;;21.90;89.20;;;;;;4957778;28;20193;-67
2022/07/07 03:42:39;;;;;;;4.37;2.40;;;21.90;89.40;;;;;;4963062;28;20198;-66
2022/07/07 03:45:07;;;;;;;5.07;2.53;;;21.90;89.60;;;;;;4965221;28;20187;-67
2022/07/07 03:47:33;;;;;;;4.90;2.40;;;21.90;89.60;;;;;;4954013;28;20206;-68
2022/07/07 03:49:59;;;;;;;4.13;2.20;;;21.90;89.50;;;;;;4951142;28;20195;-68
2022/07/07 03:52:26;;;;;;;5.03;2.23;;;22.00;89.10;;;;;;4946490;29;20206;-67
2022/07/07 03:54:52;;;;;;;5.17;2.40;;;22.00;88.80;;;;;;4956168;28;20665;-68
2022/07/07 03:57:19;;;;;;;3.93;2.07;;;22.10;89.60;;;;;;4952840;29;20279;-67
2022/07/07 03:59:45;;;;;;;3.57;2.57;;;22.10;90.00;;;;;;4950331;29;20198;-68
2022/07/07 04:02:11;;;;;;;4.13;2.37;;;22.00;90.00;;;;;;4952735;28;20194;-68
2022/07/07 04:04:38;;;;;;;4.90;2.13;;;22.10;90.10;;;;;;4960412;28;20187;-67
2022/07/07 04:07:04;;;;;;;3.70;2.60;;;22.10;90.30;;;;;;4955499;28;20260;-67
2022/07/07 04:09:31;;;;;;;7.23;2.70;;;22.10;90.30;;;;;;4934447;29;20660;-66
2022/07/07 04:11:58;;;;;;;7.53;2.40;;;22.20;90.40;;;;;;4948042;28;20222;-66
2022/07/07 04:14:24;;;;;;;4.93;2.23;;;22.10;90.20;;;;;;4961086;28;20249;-67
2022/07/07 04:16:50;;;;;;;5.27;2.30;;;22.20;90.20;;;;;;4949957;28;20333;-66
2022/07/07 04:19:17;;;;;;;4.80;2.30;;;22.20;90.40;;;;;;4957135;28;20194;-67
2022/07/07 04:21:43;;;;;;;12.93;2.73;;;22.20;90.70;;;;;;4958497;28;20198;-67
2022/07/07 04:24:10;;;;;;;3.37;2.30;;;22.20;91.20;;;;;;4969023;28;20539;-67
2022/07/07 04:26:37;;;;;;;8.60;2.77;;;22.30;91.40;;;;;;4958567;28;20202;-67
2022/07/07 04:29:04;;;;;;;7.27;2.40;;;22.30;91.60;;;;;;4961354;28;20216;-67
2022/07/07 04:31:30;;;;;;;5.63;2.87;;;22.40;91.70;;;;;;4950587;28;20202;-68
2022/07/07 04:33:56;;;;;;;4.60;2.70;;;22.50;91.90;;;;;;4953128;28;20190;-67
2022/07/07 04:36:23;;;;;;;6.03;2.40;;;22.60;92.00;;;;;;4955366;28;20582;-67
2022/07/07 04:38:49;;;;;;;2.72;2.42;;;22.70;92.10;;;;;;4953774;28;20206;-67
2022/07/07 04:41:16;;;;;;;6.30;2.30;;;22.80;91.90;;;;;;4956966;28;20556;-67
2022/07/07 04:43:42;;;;;;;5.17;2.60;;;23.00;91.50;;;;;;4952055;28;20195;-67
2022/07/07 04:46:08;;;;;;;4.00;2.20;;;23.20;91.50;;;;;;4970670;28;20195;-67
2022/07/07 04:48:35;;;;;;;4.80;2.43;;;23.30;91.60;;;;;;4975200;28;20532;-67
2022/07/07 04:51:01;;;;;;;3.55;2.47;;;23.40;92.10;;;;;;4977959;28;20217;-67
2022/07/07 04:53:27;;;;;;;3.60;2.75;;;23.50;92.10;;;;;;4966735;28;20198;-68
2022/07/07 04:55:53;;;;;;;6.57;2.80;;;23.60;92.00;;;;;;4977634;28;20852;-67
2022/07/07 04:58:20;;;;;;;5.38;2.70;;;23.60;91.90;;;;;;4935645;29;20222;-68
2022/07/07 05:00:46;;;;;;;3.65;2.45;;;23.60;92.20;;;;;;4971117;28;22336;-68
2022/07/07 05:03:12;;;;;;;4.03;2.73;;;23.70;92.70;;;;;;4975601;28;20205;-67
2022/07/07 05:05:38;;;;;;;6.88;3.15;;;23.70;93.20;;;;;;4956778;28;20230;-67
2022/07/07 05:08:05;;;;;;;6.75;3.20;;;23.80;93.20;;;;;;4954646;28;20198;-67
2022/07/07 05:10:32;;;;;;;3.80;2.60;;;23.80;93.60;;;;;;4959329;28;20198;-67
2022/07/07 05:12:59;;;;;;;8.50;2.72;;;23.80;93.20;;;;;;4950339;28;20222;-67
2022/07/07 05:15:26;;;;;;;4.15;2.53;;;23.80;93.10;;;;;;4964402;28;20201;-67
2022/07/07 05:17:52;;;;;;;3.20;2.40;;;23.80;93.10;;;;;;4951989;28;20592;-66
2022/07/07 05:20:19;;;;;;;6.75;2.95;;;23.80;93.10;;;;;;4929179;29;20195;-68
2022/07/07 05:22:45;;;;;;;3.63;2.80;;;23.90;93.30;;;;;;4950712;28;20191;-67
2022/07/07 05:25:12;;;;;;;3.63;2.55;;;23.90;92.70;;;;;;4952410;28;20200;-68
2022/07/07 05:27:38;;;;;;;2.65;2.30;;;24.00;92.50;;;;;;4984145;28;20657;-68
2022/07/07 05:30:06;;;;;;;3.40;2.67;;;24.00;92.30;;;;;;4958910;28;20876;-68
2022/07/07 05:32:33;;;;;;;6.70;3.38;;;24.10;92.00;;;;;;4955092;28;20572;-68
2022/07/07 05:35:00;;;;;;;4.53;2.60;;;24.10;92.20;;;;;;4952514;28;20191;-67
2022/07/07 05:37:26;;;;;;;3.70;2.67;;;24.20;92.00;;;;;;4978293;28;20325;-67
2022/07/07 05:39:52;;;;;;;6.90;2.70;;;24.30;91.30;;;;;;4963100;28;20190;-67
2022/07/07 05:42:18;;;;;;;3.95;2.55;;;24.40;92.30;;;;;;4958041;28;20209;-69
2022/07/07 05:44:45;;;;;;;5.60;2.70;;;24.40;92.10;;;;;;4956466;28;20186;-65
2022/07/07 05:47:11;;;;;;;5.15;2.22;;;24.40;92.10;;;;;;4959367;28;20934;-67
2022/07/07 05:49:37;;;;;;;8.23;2.40;;;24.50;91.20;;;;;;4953770;28;20305;-68
2022/07/07 05:52:05;;;;;;;4.85;2.40;;;24.60;90.20;;;;;;4957920;28;20191;-68
2022/07/07 05:54:32;;;;;;;3.70;2.47;;;24.70;91.10;;;;;;4953663;28;20187;-67
2022/07/07 05:56:59;;;;;;;5.68;2.58;;;24.70;91.40;;;;;;4952201;28;20844;-67
2022/07/07 05:59:26;;;;;;;3.78;2.40;;;24.80;91.00;;;;;;4954314;28;20246;-67
2022/07/07 06:01:52;;;;;;;4.80;2.30;;;24.80;90.50;;;;;;4963258;28;20190;-67
2022/07/07 06:04:18;;;;;;;5.45;2.78;;;24.90;90.70;;;;;;4946200;28;20191;-67
2022/07/07 06:06:44;;;;;;;6.45;2.35;;;24.90;90.70;;;;;;4952326;28;20226;-66
2022/07/07 06:09:11;;;;;;;7.30;2.67;;;25.00;90.70;;;;;;4948664;28;20202;-68
2022/07/07 06:11:37;;;;;;;9.95;3.10;;;25.10;90.40;;;;;;4977776;28;20298;-67
2022/07/07 06:14:03;;;;;;;9.93;3.13;;;25.30;90.20;;;;;;4980746;28;20195;-68
2022/07/07 06:16:40;;;;;;;5.30;2.58;;;25.60;90.10;;;;;;4964185;28;20203;-67
2022/07/07 06:19:10;;;;;;;9.63;2.92;;;25.70;90.30;;;;;;4946372;28;20670;-68
2022/07/07 06:21:38;;;;;;;7.55;2.70;;;25.80;90.10;;;;;;4954903;28;20222;-68
2022/07/07 06:24:05;;;;;;;5.93;2.60;;;25.80;89.70;;;;;;4943461;28;20226;-66
2022/07/07 06:26:32;;;;;;;6.57;2.85;;;25.90;89.90;;;;;;4948142;28;20194;-68
2022/07/07 06:28:58;;;;;;;7.38;2.80;;;25.90;90.60;;;;;;4954787;28;20553;-68
2022/07/07 06:31:25;;;;;;;11.35;3.10;;;26.00;91.80;;;;;;4952177;28;20200;-68
2022/07/07 06:33:52;;;;;;;5.40;3.17;;;26.10;92.20;;;;;;4958238;28;20195;-68
2022/07/07 06:36:18;;;;;;;6.28;3.45;;;26.20;92.30;;;;;;4964545;28;20277;-68
2022/07/07 06:38:44;;;;;;;5.85;2.88;;;26.20;92.40;;;;;;4951616;28;20286;-68
2022/07/07 06:41:11;;;;;;;6.80;3.70;;;26.30;92.80;;;;;;4966002;28;20187;-68
2022/07/07 06:43:37;;;;;;;9.77;3.78;;;26.30;94.10;;;;;;4950392;28;20206;-68
2022/07/07 06:46:04;;;;;;;10.07;3.78;;;26.40;94.10;;;;;;4968606;28;20569;-67
2022/07/07 06:48:31;;;;;;;6.65;3.58;;;26.50;94.00;;;;;;4973612;28;20194;-69
2022/07/07 06:50:58;;;;;;;7.63;3.58;;;26.70;93.70;;;;;;4949797;29;20344;-67
2022/07/07 06:53:25;;;;;;;9.10;3.50;;;26.70;93.30;;;;;;4948136;28;20186;-68
2022/07/07 06:55:52;;;;;;;8.15;3.58;;;26.80;93.30;;;;;;4949724;28;20191;-68
2022/07/07 06:58:19;;;;;;;10.10;3.90;;;26.80;93.10;;;;;;4955625;28;20210;-67
2022/07/07 07:00:45;;;;;;;6.50;3.30;;;26.90;93.00;;;;;;4932077;29;20187;-66
2022/07/07 07:03:11;;;;;;;9.60;3.03;;;27.00;93.20;;;;;;4947024;28;20222;-67
2022/07/07 07:05:38;;;;;;;10.50;3.53;;;27.10;93.40;;;;;;4978380;28;20296;-67
2022/07/07 07:08:05;;;;;;;7.38;4.07;;;27.30;93.60;;;;;;4972911;28;20209;-67
2022/07/07 07:10:32;;;;;;;8.00;3.92;;;27.30;94.20;;;;;;4963792;28;20672;-67
2022/07/07 07:12:58;;;;;;;10.82;3.70;;;27.40;94.60;;;;;;4972390;28;20352;-68
2022/07/07 07:15:25;;;;;;;11.82;3.95;;;27.40;94.60;;;;;;4956712;28;20206;-68
2022/07/07 07:17:51;;;;;;;7.32;3.72;;;27.50;94.40;;;;;;4945805;28;20732;-67
2022/07/07 07:20:18;;;;;;;5.45;3.63;;;27.60;94.40;;;;;;4963910;28;20190;-68
2022/07/07 07:22:45;;;;;;;8.55;4.07;;;27.70;94.00;;;;;;4946338;28;20246;-66
2022/07/07 07:25:12;;;;;;;9.73;4.38;;;27.80;94.80;;;;;;4950999;28;20242;-67
2022/07/07 07:27:39;;;;;;;17.23;4.43;;;27.90;95.20;;;;;;4942053;28;20723;-68
2022/07/07 07:30:07;;;;;;;9.70;4.22;;;28.00;95.40;;;;;;4959623;28;20194;-67
2022/07/07 07:32:33;;;;;;;6.63;3.42;;;28.00;95.10;;;;;;4954509;28;20279;-68
2022/07/07 07:34:59;;;;;;;10.50;3.95;;;28.00;94.80;;;;;;4958246;28;20191;-68
2022/07/07 07:37:26;;;;;;;10.18;4.20;;;28.20;95.80;;;;;;4949951;28;20218;-67
2022/07/07 07:39:55;;;;;;;14.82;4.70;;;28.30;95.60;;;;;;4945638;28;20191;-67
2022/07/07 07:42:26;;;;;;;13.05;4.15;;;28.30;95.60;;;;;;4947796;29;20191;-68
2022/07/07 07:45:11;;;;;;;14.05;4.13;;;28.40;96.20;;;;;;4954155;28;20195;-66
2022/07/07 07:47:47;;;;;;;7.53;4.38;;;28.50;96.40;;;;;;4968285;28;20246;-67
2022/07/07 07:50:20;;;;;;;12.93;4.55;;;28.60;96.20;;;;;;4948666;28;20201;-68
2022/07/07 07:52:51;;;;;;;10.25;4.05;;;28.70;96.70;;;;;;4951151;28;20198;-66
2022/07/07 07:55:20;;;;;;;9.38;4.00;;;28.70;96.50;;;;;;4950288;28;20266;-68
2022/07/07 07:57:47;;;;;;;11.50;4.20;;;28.70;96.40;;;;;;4948694;28;20215;-67
2022/07/07 08:00:18;;;;;;;15.50;4.10;;;28.90;96.70;;;;;;4967782;28;20245;-67
2022/07/07 08:02:46;;;;;;;12.73;4.65;;;28.90;96.50;;;;;;4945865;28;20190;-67
2022/07/07 08:05:15;;;;;;;12.75;4.43;;;29.00;96.70;;;;;;4944732;28;20210;-68
2022/07/07 08:07:42;;;;;;;9.43;4.43;;;29.20;97.30;;;;;;4933235;29;20882;-68
2022/07/07 08:10:13;;;;;;;13.23;4.32;;;29.30;97.60;;;;;;4943691;29;20199;-67
2022/07/07 08:12:42;;;;;;;12.52;4.55;;;29.30;97.70;;;;;;4949580;28;20330;-67
2022/07/07 08:15:10;;;;;;;11.27;4.28;;;29.40;97.80;;;;;;4948501;29;20198;-68
2022/07/07 08:17:39;;;;;;;11.45;4.35;;;29.40;98.30;;;;;;4940963;28;20219;-67
2022/07/07 08:20:06;;;;;;;15.40;4.68;;;29.50;98.80;;;;;;4951804;29;20195;-68
2022/07/07 08:22:32;;;;;;;10.48;4.18;;;29.50;99.00;;;;;;4947783;28;20245;-66
2022/07/07 08:24:59;;;;;;;10.50;4.20;;;29.50;98.80;;;;;;4947833;28;20528;-67
2022/07/07 08:27:25;;;;;;;14.40;4.68;;;29.60;98.60;;;;;;4969081;28;20194;-67
2022/07/07 08:29:52;;;;;;;15.88;4.47;;;29.70;98.50;;;;;;4952352;29;20190;-67
2022/07/07 08:32:18;;;;;;;14.10;4.43;;;29.70;98.00;;;;;;4965459;28;20278;-66
2022/07/07 08:34:45;;;;;;;11.40;4.40;;;29.90;98.30;;;;;;4950602;28;20731;-67
2022/07/07 08:37:15;;;;;;;15.77;4.63;;;30.10;98.70;;;;;;4942148;28;20214;-69
2022/07/07 08:39:42;;;;;;;17.90;5.18;;;30.10;98.20;;;;;;4946109;28;20195;-68
2022/07/07 08:42:08;;;;;;;20.70;5.28;;;30.20;98.50;;;;;;4945880;28;20249;-66
2022/07/07 08:44:35;;;;;;;12.70;4.85;;;30.30;98.50;;;;;;4951000;28;20194;-67
2022/07/07 08:47:02;;;;;;;15.40;4.93;;;30.40;98.50;;;;;;4949073;28;20536;-67
2022/07/07 08:49:30;;;;;;;8.57;4.03;;;30.50;98.60;;;;;;4944903;28;20199;-67
2022/07/07 08:51:57;;;;;;;12.98;4.72;;;30.50;98.60;;;;;;4974415;28;20205;-68
2022/07/07 08:54:26;;;;;;;12.98;4.35;;;30.70;98.80;;;;;;4951094;28;20215;-66
2022/07/07 08:56:55;;;;;;;11.98;4.65;;;30.70;98.90;;;;;;4962080;28;20219;-66
2022/07/07 08:59:21;;;;;;;10.93;4.72;;;30.70;99.40;;;;;;4933395;29;20211;-67
2022/07/07 09:02:02;;;;;;;13.73;5.18;;;30.70;99.70;;;;;;4934165;29;20274;-67
2022/07/07 09:04:29;;;;;;;13.32;5.07;;;30.90;99.70;;;;;;4950767;28;20209;-68
2022/07/07 09:06:58;;;;;;;14.00;4.80;;;30.90;99.80;;;;;;4943715;28;20256;-66
2022/07/07 09:09:55;;;;;;;16.65;4.57;;;31.10;99.50;;;;;;4953121;28;20671;-66
2022/07/07 09:12:21;;;;;;;18.75;4.65;;;31.00;98.40;;;;;;4945830;29;20236;-67
2022/07/07 09:14:54;;;;;;;13.85;4.90;;;31.00;99.50;;;;;;4951393;28;20296;-66
2022/07/07 09:17:31;;;;;;;13.00;4.53;;;31.10;99.90;;;;;;4949047;28;20218;-69
2022/07/07 09:20:12;;;;;;;12.80;4.80;;;31.20;99.90;;;;;;4933794;29;20186;-67
2022/07/07 09:22:54;;;;;;;12.57;4.50;;;31.30;99.90;;;;;;4950880;29;20203;-69
2022/07/07 09:25:24;;;;;;;17.30;5.43;;;31.30;99.90;;;;;;4915676;29;20191;-68
2022/07/07 09:28:02;;;;;;;12.00;4.78;;;31.30;99.90;;;;;;4952151;28;20214;-67
2022/07/07 09:30:43;;;;;;;15.23;4.97;;;31.50;99.90;;;;;;4950829;28;20198;-66
2022/07/07 09:33:24;;;;;;;14.00;4.47;;;31.50;99.90;;;;;;4949606;28;20294;-67
2022/07/07 09:38:42;;;;;;;12.93;5.20;;;31.80;98.90;;;;;;4950789;29;20230;-67
2022/07/07 09:41:19;;;;;;;12.00;4.55;;;31.90;99.10;;;;;;4949041;28;20195;-66
2022/07/07 09:43:49;;;;;;;12.95;4.55;;;32.20;98.60;;;;;;4950356;29;20194;-67
2022/07/07 09:46:27;;;;;;;12.90;4.10;;;32.20;97.80;;;;;;4949476;28;20265;-68
2022/07/07 09:48:57;;;;;;;12.20;4.55;;;32.30;96.50;;;;;;4950220;28;20194;-66
2022/07/07 09:51:30;;;;;;;12.32;3.63;;;32.30;95.70;;;;;;4943086;29;20194;-68
2022/07/07 09:53:57;;;;;;;16.33;5.13;;;32.50;93.20;;;;;;4942807;28;20843;-66
2022/07/07 09:56:43;;;;;;;11.23;3.95;;;32.60;96.10;;;;;;4943667;28;20202;-67
2022/07/07 09:59:21;;;;;;;17.70;4.22;;;32.70;96.30;;;;;;4953886;28;20229;-67
2022/07/07 10:01:48;;;;;;;16.05;5.00;;;32.80;95.30;;;;;;4944829;28;20218;-65
2022/07/07 10:04:19;;;;;;;13.75;4.43;;;32.90;98.10;;;;;;4928828;28;20967;-65
2022/07/07 10:06:46;;;;;;;11.90;4.90;;;32.90;97.90;;;;;;4948161;28;20290;-66
2022/07/07 10:09:21;;;;;;;13.63;5.18;;;33.10;97.90;;;;;;4962288;28;20224;-66
2022/07/07 10:11:55;;;;;;;20.35;5.45;;;32.90;97.90;;;;;;4964058;28;20214;-66
2022/07/07 10:14:27;;;;;;;17.65;5.00;;;32.70;99.10;;;;;;4948048;28;20217;-67
2022/07/07 10:16:55;;;;;;;14.32;4.88;;;32.80;98.40;;;;;;4950629;28;20229;-67
2022/07/07 10:19:25;;;;;;;16.25;4.82;;;32.90;98.90;;;;;;4957080;28;20273;-66
2022/07/07 10:21:54;;;;;;;14.93;4.90;;;32.90;99.30;;;;;;4946731;28;20242;-66
2022/07/07 10:24:25;;;;;;;12.65;5.18;;;32.80;99.30;;;;;;4957593;28;20746;-67
2022/07/07 10:26:57;;;;;;;13.55;4.88;;;33.00;99.00;;;;;;4963327;28;20195;-67
2022/07/07 10:29:49;;;;;;;18.13;4.82;;;33.10;98.90;;;;;;4943040;28;20290;-67
2022/07/07 10:32:18;;;;;;;23.17;4.63;;;33.10;99.20;;;;;;4943340;28;20207;-68
2022/07/07 10:34:54;;;;;;;14.38;4.50;;;33.00;98.60;;;;;;4921612;29;20787;-66
2022/07/07 10:37:23;;;;;;;13.40;4.63;;;32.90;98.80;;;;;;4944020;28;20218;-67
2022/07/07 10:39:56;;;;;;;15.05;5.32;;;32.80;98.90;;;;;;4946273;28;20195;-67
2022/07/07 10:42:38;;;;;;;15.65;5.38;;;32.90;98.50;;;;;;4952457;28;20855;-66
2022/07/07 10:45:07;;;;;;;15.38;5.38;;;32.80;99.00;;;;;;4946051;28;20191;-68
2022/07/07 10:47:36;;;;;;;11.93;4.95;;;32.70;99.30;;;;;;4960038;28;20736;-66
2022/07/07 10:50:20;;;;;;;15.88;5.18;;;32.80;99.10;;;;;;4951659;28;20972;-67
2022/07/07 10:52:47;;;;;;;14.98;5.15;;;32.90;99.00;;;;;;4953726;28;20214;-66
2022/07/07 10:55:13;;;;;;;12.95;4.90;;;33.00;98.70;;;;;;4946791;28;20207;-66
2022/07/07 10:57:46;;;;;;;16.23;4.93;;;32.90;98.30;;;;;;4945305;28;20301;-66
2022/07/07 11:00:28;;;;;;;13.40;4.57;;;32.90;98.20;;;;;;4960123;28;20191;-67
2022/07/07 11:02:57;;;;;;;10.43;4.00;;;32.90;97.80;;;;;;4953731;28;20183;-68
2022/07/07 11:05:28;;;;;;;21.67;5.50;;;32.90;97.30;;;;;;4944567;28;20198;-66
2022/07/07 11:07:57;;;;;;;10.88;4.30;;;33.00;96.10;;;;;;4955228;29;20257;-66
2022/07/07 11:10:52;;;;;;;12.05;3.95;;;33.10;95.30;;;;;;4953704;28;20201;-66
2022/07/07 11:27:51;;;;;;;9.63;3.75;;;32.80;93.70;;;;;;5106847;27;21206;-64
2022/07/07 11:30:40;;;;;;;13.32;3.50;;;32.90;91.30;;;;;;5089919;28;20307;-66
2022/07/07 11:33:08;;;;;;;11.85;3.42;;;32.90;91.00;;;;;;5088108;28;20201;-67
2022/07/07 11:35:40;;;;;;;7.10;3.65;;;33.00;91.40;;;;;;5084692;28;20216;-67
2022/07/07 11:38:09;;;;;;;6.72;3.30;;;32.90;90.60;;;;;;5097047;28;20208;-67
2022/07/07 11:40:39;;;;;;;12.50;3.20;;;32.90;90.60;;;;;;5077163;28;20636;-66
2022/07/07 11:43:06;;;;;;;3.20;2.33;;;32.80;78.50;;;;;;5115906;28;20250;-65
2022/07/07 11:45:33;;;;;;;7.53;3.10;;;32.70;77.20;;;;;;5118355;28;20304;-68
2022/07/07 11:48:03;;;;;;;6.65;2.95;;;32.80;77.80;;;;;;5120949;28;20196;-66
2022/07/07 11:50:31;;;;;;;9.50;2.58;;;32.90;78.00;;;;;;5121567;28;20787;-64
2022/07/07 11:53:04;;;;;;;4.68;2.58;;;32.90;79.40;;;;;;5103914;28;20188;-67
2022/07/07 11:55:34;;;;;;;7.72;2.88;;;32.70;75.80;;;;;;5058362;28;20520;-67
2022/07/07 11:58:06;;;;;;;9.55;3.00;;;32.70;79.80;;;;;;5071764;28;20224;-67
2022/07/07 12:00:37;;;;;;;7.85;2.90;;;32.90;79.80;;;;;;5063851;28;20194;-67
2022/07/07 12:03:07;;;;;;;6.25;2.70;;;33.00;80.80;;;;;;5079202;28;20241;-67
2022/07/07 12:05:43;;;;;;;11.57;2.75;;;33.00;77.50;;;;;;5064711;28;20190;-66
2022/07/07 12:08:13;;;;;;;7.53;2.70;;;33.00;75.00;;;;;;5079572;28;20654;-65
2022/07/07 12:10:51;;;;;;;4.80;2.70;;;33.10;75.10;;;;;;5093229;28;20572;-67
2022/07/07 12:13:17;;;;;;;4.97;2.78;;;33.10;74.30;;;;;;5060607;28;20216;-66
2022/07/07 12:15:50;;;;;;;4.05;2.35;;;33.10;75.60;;;;;;5048559;28;20210;-67
2022/07/07 12:18:39;;;;;;;6.03;2.58;;;33.10;74.00;;;;;;5083449;28;20277;-66
2022/07/07 12:21:11;;;;;;;6.72;2.65;;;33.10;77.70;;;;;;5082824;28;20363;-66
2022/07/07 12:23:46;;;;;;;3.88;2.33;;;33.10;73.50;;;;;;5083727;28;20232;-66
2022/07/07 12:26:16;;;;;;;3.58;1.90;;;33.10;74.30;;;;;;5090201;28;20204;-68
2022/07/07 12:28:44;;;;;;;4.45;2.22;;;33.10;71.50;;;;;;5076626;28;20273;-68
2022/07/07 12:31:22;;;;;;;4.22;2.50;;;33.30;74.50;;;;;;5067924;28;20232;-67
2022/07/07 12:33:49;;;;;;;8.13;2.65;;;33.30;72.30;;;;;;5084995;28;20733;-66
2022/07/07 12:36:21;;;;;;;4.30;2.28;;;33.30;70.10;;;;;;5080689;28;20205;-67
2022/07/07 12:39:03;;;;;;;5.65;2.17;;;33.30;69.30;;;;;;5085250;28;20259;-67
2022/07/07 12:41:36;;;;;;;3.85;2.30;;;33.20;68.30;;;;;;5088480;28;20211;-65
2022/07/07 12:44:25;;;;;;;5.40;2.25;;;33.10;68.10;;;;;;5048226;28;20286;-65
2022/07/07 12:46:58;;;;;;;4.95;2.50;;;33.10;68.80;;;;;;5083606;28;20186;-65
2022/07/07 12:49:26;;;;;;;4.45;2.28;;;33.10;70.30;;;;;;5063754;28;20183;-66
2022/07/07 12:51:55;;;;;;;4.95;2.63;;;33.10;68.10;;;;;;5067366;28;20209;-68
2022/07/07 12:54:25;;;;;;;4.88;2.50;;;33.10;68.20;;;;;;5067350;28;20185;-66
2022/07/07 12:57:07;;;;;;;8.80;2.60;;;32.90;69.30;;;;;;5064522;28;20315;-66
2022/07/07 12:59:46;;;;;;;4.80;2.17;;;33.00;70.60;;;;;;5072301;28;20186;-65
2022/07/07 13:02:14;;;;;;;5.25;2.78;;;33.10;70.70;;;;;;5088035;28;20418;-66
2022/07/07 13:04:42;;;;;;;4.60;2.40;;;33.10;69.60;;;;;;5081856;28;20213;-65
2022/07/07 13:07:10;;;;;;;7.57;2.53;;;33.10;68.80;;;;;;5074883;28;20182;-65
2022/07/07 13:09:37;;;;;;;9.23;2.47;;;33.10;68.60;;;;;;5088645;28;20243;-66